createdAt,value
2018-12-08T00:00:06.904Z,2.00
2018-12-08T00:02:33.513Z,2.67
2018-12-08T00:05:00.093Z,1.90
2018-12-08T00:07:26.677Z,2.10
2018-12-08T00:09:53.281Z,2.17
2018-12-08T00:12:19.882Z,1.63
2018-12-08T00:14:46.485Z,2.30
2018-12-08T00:17:13.060Z,2.60
2018-12-08T00:19:39.660Z,2.20
2018-12-08T00:22:06.236Z,2.17
2018-12-08T00:24:32.822Z,1.80
2018-12-08T00:26:59.495Z,1.90
2018-12-08T00:29:26.069Z,1.73
2018-12-08T00:31:52.664Z,2.43
2018-12-08T00:34:19.289Z,1.87
2018-12-08T00:36:45.928Z,2.07
2018-12-08T00:39:12.714Z,2.00
2018-12-08T00:41:39.317Z,1.70
2018-12-08T00:44:05.894Z,1.77
2018-12-08T00:46:32.485Z,2.53
2018-12-08T00:48:59.073Z,2.17
2018-12-08T00:51:25.692Z,2.07
2018-12-08T00:53:52.289Z,1.60
2018-12-08T00:56:18.918Z,2.00
2018-12-08T00:58:45.492Z,1.93
2018-12-08T01:01:12.118Z,2.20
2018-12-08T01:03:38.708Z,1.70
2018-12-08T01:06:05.302Z,1.40
2018-12-08T01:08:31.876Z,1.60
2018-12-08T01:10:58.577Z,1.20
2018-12-08T01:13:25.148Z,1.87
2018-12-08T01:15:51.774Z,1.47
2018-12-08T01:18:18.347Z,1.40
2018-12-08T01:20:44.945Z,1.30
2018-12-08T01:23:11.532Z,1.30
2018-12-08T01:25:38.141Z,1.40
2018-12-08T01:28:04.737Z,1.43
2018-12-08T01:30:31.338Z,1.30
2018-12-08T01:32:57.913Z,1.10
2018-12-08T01:35:24.504Z,1.10
2018-12-08T01:37:51.108Z,0.90
2018-12-08T01:40:17.696Z,0.97
2018-12-08T01:42:46.200Z,0.60
2018-12-08T01:45:13.106Z,1.33
2018-12-08T01:47:39.693Z,1.10
2018-12-08T01:50:06.300Z,0.90
2018-12-08T01:52:32.892Z,1.13
2018-12-08T01:54:59.487Z,1.23
2018-12-08T01:57:26.089Z,1.10
2018-12-08T01:59:52.684Z,1.40
2018-12-08T02:02:19.260Z,1.00
2018-12-08T02:04:45.878Z,1.57
2018-12-08T02:07:12.476Z,1.33
2018-12-08T02:09:39.086Z,1.60
2018-12-08T02:12:05.665Z,0.93
2018-12-08T02:14:32.232Z,1.30
2018-12-08T02:16:58.825Z,1.43
2018-12-08T02:19:25.437Z,1.50
2018-12-08T02:21:52.046Z,1.50
2018-12-08T02:24:18.665Z,1.17
2018-12-08T02:26:45.252Z,1.30
2018-12-08T02:29:11.840Z,1.40
2018-12-08T02:31:38.476Z,1.10
2018-12-08T02:34:05.130Z,1.30
2018-12-08T02:36:31.768Z,1.70
2018-12-08T02:38:58.363Z,1.63
2018-12-08T02:41:25.041Z,1.60
2018-12-08T02:43:51.654Z,1.30
2018-12-08T02:46:18.217Z,1.30
2018-12-08T02:48:44.793Z,1.50
2018-12-08T02:51:11.389Z,1.70
2018-12-08T02:53:37.985Z,1.10
2018-12-08T02:56:04.787Z,1.10
2018-12-08T02:58:31.381Z,1.33
2018-12-08T03:00:57.965Z,1.40
2018-12-08T03:03:24.584Z,1.33
2018-12-08T03:05:51.153Z,1.17
2018-12-08T03:08:17.772Z,1.10
2018-12-08T03:10:44.354Z,1.43
2018-12-08T03:13:10.945Z,1.40
2018-12-08T03:15:37.528Z,1.40
2018-12-08T03:18:04.116Z,1.70
2018-12-08T03:20:30.740Z,1.47
2018-12-08T03:22:57.360Z,1.77
2018-12-08T03:25:24.012Z,1.80
2018-12-08T03:27:50.629Z,1.40
2018-12-08T03:30:17.206Z,1.53
2018-12-08T03:32:43.805Z,1.77
2018-12-08T03:35:10.477Z,1.37
2018-12-08T03:37:37.074Z,1.30
2018-12-08T03:40:03.956Z,1.47
2018-12-08T03:42:30.548Z,1.53
2018-12-08T03:44:57.116Z,1.47
2018-12-08T03:47:23.717Z,1.60
2018-12-08T03:49:50.327Z,1.40
2018-12-08T03:52:16.894Z,1.63
2018-12-08T03:54:43.477Z,1.37
2018-12-08T03:57:10.094Z,1.53
2018-12-08T03:59:36.685Z,1.50
2018-12-08T04:02:03.301Z,1.57
2018-12-08T04:04:29.889Z,1.30
2018-12-08T04:06:56.476Z,1.57
2018-12-08T04:09:23.044Z,1.53
2018-12-08T04:11:49.661Z,1.20
2018-12-08T04:14:16.249Z,1.73
2018-12-08T04:16:42.821Z,1.77
2018-12-08T04:19:09.421Z,1.57
2018-12-08T04:21:36.067Z,1.67
2018-12-08T04:24:02.657Z,1.20
2018-12-08T04:26:29.520Z,1.30
2018-12-08T04:28:56.101Z,1.40
2018-12-08T04:31:22.677Z,0.73
2018-12-08T04:33:49.279Z,0.90
2018-12-08T04:36:15.844Z,1.03
2018-12-08T04:38:42.472Z,1.07
2018-12-08T04:41:09.171Z,1.03
2018-12-08T04:43:35.853Z,1.07
2018-12-08T04:46:02.428Z,1.40
2018-12-08T04:48:29.010Z,0.83
2018-12-08T04:50:55.600Z,0.83
2018-12-08T04:53:22.178Z,0.90
2018-12-08T04:55:48.787Z,0.60
2018-12-08T04:58:15.367Z,0.87
2018-12-08T05:00:41.994Z,0.90
2018-12-08T05:03:08.572Z,0.90
2018-12-08T05:05:35.144Z,0.70
2018-12-08T05:08:01.741Z,0.87
2018-12-08T05:10:28.340Z,0.80
2018-12-08T05:12:54.941Z,0.80
2018-12-08T05:15:21.513Z,0.80
2018-12-08T05:17:48.174Z,0.90
2018-12-08T05:20:14.744Z,0.90
2018-12-08T05:22:41.375Z,0.97
2018-12-08T05:25:07.997Z,1.03
2018-12-08T05:27:34.605Z,0.80
2018-12-08T05:30:01.189Z,0.87
2018-12-08T05:32:27.844Z,1.30
2018-12-08T05:34:54.440Z,1.60
2018-12-08T05:37:21.139Z,1.20
2018-12-08T05:39:47.706Z,1.50
2018-12-08T05:42:14.304Z,1.20
2018-12-08T05:44:40.879Z,0.93
2018-12-08T05:47:07.507Z,0.93
2018-12-08T05:49:34.084Z,0.90
2018-12-08T05:52:00.681Z,1.10
2018-12-08T05:54:27.294Z,1.23
2018-12-08T05:56:53.893Z,1.03
2018-12-08T05:59:20.481Z,0.80
2018-12-08T06:01:47.110Z,0.73
2018-12-08T06:04:13.685Z,0.90
2018-12-08T06:06:40.262Z,1.03
2018-12-08T06:09:06.886Z,1.00
2018-12-08T06:11:33.545Z,0.97
2018-12-08T06:14:00.109Z,0.93
2018-12-08T06:16:26.680Z,0.90
2018-12-08T06:18:53.286Z,0.80
2018-12-08T06:21:21.788Z,1.10
2018-12-08T06:23:48.372Z,0.50
2018-12-08T06:26:15.013Z,1.20
2018-12-08T06:28:41.588Z,0.83
2018-12-08T06:31:08.177Z,1.60
2018-12-08T06:33:34.761Z,1.03
2018-12-08T06:36:01.368Z,0.80
2018-12-08T06:38:27.956Z,2.40
2018-12-08T06:40:54.624Z,1.87
2018-12-08T06:43:21.167Z,1.80
2018-12-08T06:45:47.743Z,0.60
2018-12-08T06:48:14.333Z,2.87
2018-12-08T06:50:41.131Z,2.33
2018-12-08T06:53:07.740Z,0.80
2018-12-08T06:55:34.318Z,0.63
2018-12-08T06:58:00.928Z,0.70
2018-12-08T07:00:27.532Z,0.50
2018-12-08T07:02:54.135Z,0.57
2018-12-08T07:05:20.762Z,0.50
2018-12-08T07:07:47.341Z,0.80
2018-12-08T07:10:13.941Z,0.57
2018-12-08T07:12:40.565Z,0.70
2018-12-08T07:15:07.161Z,0.43
2018-12-08T07:17:33.780Z,0.80
2018-12-08T07:20:00.368Z,0.80
2018-12-08T07:22:26.956Z,0.53
2018-12-08T07:24:53.621Z,0.63
2018-12-08T07:27:20.214Z,0.77
2018-12-08T07:29:46.792Z,0.50
2018-12-08T07:32:13.384Z,0.63
2018-12-08T07:34:39.964Z,0.63
2018-12-08T07:37:06.589Z,1.50
2018-12-08T07:39:33.164Z,0.87
2018-12-08T07:41:59.774Z,0.87
2018-12-08T07:44:26.369Z,1.00
2018-12-08T07:46:52.986Z,0.50
2018-12-08T07:49:19.584Z,0.40
2018-12-08T07:51:46.172Z,0.70
2018-12-08T07:54:12.749Z,0.70
2018-12-08T07:56:39.344Z,0.60
2018-12-08T07:59:05.980Z,0.87
2018-12-08T08:01:32.551Z,1.17
2018-12-08T08:03:59.130Z,2.00
2018-12-08T08:06:25.827Z,2.10
2018-12-08T08:08:52.409Z,1.77
2018-12-08T08:11:19.902Z,1.80
2018-12-08T08:13:46.665Z,0.70
2018-12-08T08:16:13.240Z,1.20
2018-12-08T08:18:39.853Z,0.60
2018-12-08T08:21:06.676Z,0.60
2018-12-08T08:23:33.251Z,0.83
2018-12-08T08:25:59.820Z,0.90
2018-12-08T08:28:26.424Z,0.70
2018-12-08T08:30:53.033Z,0.67
2018-12-08T08:33:19.611Z,0.87
2018-12-08T08:35:46.189Z,0.73
2018-12-08T08:38:12.797Z,0.87
2018-12-08T08:40:39.382Z,0.87
2018-12-08T08:43:05.976Z,1.10
2018-12-08T08:45:32.559Z,1.17
2018-12-08T08:47:59.149Z,0.87
2018-12-08T08:50:25.736Z,0.93
2018-12-08T08:52:52.636Z,0.87
2018-12-08T08:55:19.232Z,1.10
2018-12-08T08:57:46.012Z,0.93
2018-12-08T09:00:12.600Z,0.70
2018-12-08T09:02:39.183Z,0.90
2018-12-08T09:05:05.801Z,0.53
2018-12-08T09:07:32.393Z,0.43
2018-12-08T09:09:58.973Z,0.50
2018-12-08T09:12:25.574Z,0.73
2018-12-08T09:14:52.148Z,0.60
2018-12-08T09:17:18.741Z,0.50
2018-12-08T09:19:45.365Z,0.50
2018-12-08T09:22:11.960Z,0.50
2018-12-08T09:24:38.569Z,0.40
2018-12-08T09:27:05.188Z,0.33
2018-12-08T09:29:31.810Z,0.37
2018-12-08T09:31:58.418Z,0.53
2018-12-08T09:34:24.992Z,0.60
2018-12-08T09:36:51.617Z,0.60
2018-12-08T09:39:18.245Z,0.73
2018-12-08T09:41:44.848Z,0.73
2018-12-08T09:44:11.420Z,0.63
2018-12-08T09:46:38.017Z,0.60
2018-12-08T09:49:04.594Z,0.60
2018-12-08T09:51:31.191Z,0.70
2018-12-08T09:53:57.776Z,0.70
2018-12-08T09:56:24.458Z,0.63
2018-12-08T09:58:51.033Z,0.93
2018-12-08T10:01:17.608Z,0.80
2018-12-08T10:03:44.241Z,0.80
2018-12-08T10:06:10.816Z,0.67
2018-12-08T10:08:37.413Z,0.67
2018-12-08T10:11:04.017Z,0.63
2018-12-08T10:13:30.617Z,0.63
2018-12-08T10:15:57.224Z,0.70
2018-12-08T10:18:23.797Z,0.47
2018-12-08T10:20:50.377Z,1.00
2018-12-08T10:23:17.053Z,0.80
2018-12-08T10:25:43.648Z,0.70
2018-12-08T10:28:10.282Z,1.27
2018-12-08T10:30:36.880Z,1.03
2018-12-08T10:33:03.505Z,1.00
2018-12-08T10:35:30.102Z,1.17
2018-12-08T10:37:56.716Z,1.30
2018-12-08T10:40:23.289Z,1.33
2018-12-08T10:42:49.892Z,1.40
2018-12-08T10:45:16.505Z,1.60
2018-12-08T10:47:43.082Z,1.43
2018-12-08T10:50:09.701Z,1.70
2018-12-08T10:52:36.281Z,2.50
2018-12-08T10:55:02.920Z,2.10
2018-12-08T10:57:29.528Z,2.10
2018-12-08T10:59:56.498Z,2.20
2018-12-08T11:02:28.724Z,2.63
2018-12-08T11:04:55.329Z,2.53
2018-12-08T11:07:21.924Z,2.40
2018-12-08T11:09:48.500Z,2.17
2018-12-08T11:12:15.113Z,2.27
2018-12-08T11:14:41.726Z,2.30
2018-12-08T11:17:08.416Z,2.20
2018-12-08T11:19:34.985Z,2.03
2018-12-08T11:22:01.623Z,3.03
2018-12-08T11:24:28.233Z,2.30
2018-12-08T11:26:54.816Z,2.33
2018-12-08T11:29:21.474Z,1.70
2018-12-08T11:31:48.098Z,2.13
2018-12-08T11:34:14.705Z,2.30
2018-12-08T11:36:49.359Z,2.03
2018-12-08T11:39:09.936Z,2.67
2018-12-08T11:41:38.493Z,2.67
2018-12-08T11:44:05.094Z,2.47
2018-12-08T11:46:31.681Z,2.20
2018-12-08T11:48:58.276Z,2.20
2018-12-08T11:51:24.885Z,2.60
2018-12-08T11:53:51.476Z,2.63
2018-12-08T11:56:18.076Z,2.20
2018-12-08T11:58:44.672Z,2.60
2018-12-08T12:01:11.297Z,2.70
2018-12-08T12:03:37.890Z,1.90
2018-12-08T12:06:04.492Z,2.83
2018-12-08T12:08:31.094Z,2.00
2018-12-08T12:10:57.660Z,2.53
2018-12-08T12:13:24.236Z,2.30
2018-12-08T12:15:50.833Z,2.60
2018-12-08T12:18:17.408Z,2.33
2018-12-08T12:20:44.057Z,2.43
2018-12-08T12:23:10.640Z,2.30
2018-12-08T12:25:37.274Z,2.70
2018-12-08T12:28:04.096Z,3.83
2018-12-08T12:30:30.940Z,2.70
2018-12-08T12:32:57.540Z,3.23
2018-12-08T12:35:24.149Z,2.47
2018-12-08T12:37:50.729Z,2.80
2018-12-08T12:40:17.332Z,2.60
2018-12-08T12:42:43.910Z,2.67
2018-12-08T12:45:10.528Z,2.47
2018-12-08T12:47:37.205Z,2.50
2018-12-08T12:50:04.428Z,2.23
2018-12-08T12:52:31.025Z,2.97
2018-12-08T12:54:57.616Z,2.60
2018-12-08T12:57:24.183Z,2.40
2018-12-08T12:59:50.780Z,2.43
2018-12-08T13:02:17.464Z,2.00
2018-12-08T13:04:44.044Z,2.63
2018-12-08T13:07:10.640Z,3.00
2018-12-08T13:09:37.244Z,2.70
2018-12-08T13:12:03.909Z,2.03
2018-12-08T13:14:30.494Z,2.57
2018-12-08T13:16:57.085Z,2.30
2018-12-08T13:19:23.701Z,2.27
2018-12-08T13:21:50.282Z,1.93
2018-12-08T13:24:16.864Z,2.40
2018-12-08T13:26:43.548Z,2.20
2018-12-08T13:29:10.241Z,2.47
2018-12-08T13:31:36.848Z,2.80
2018-12-08T13:34:05.353Z,3.57
2018-12-08T13:36:31.933Z,2.83
2018-12-08T13:38:58.785Z,3.60
2018-12-08T13:41:25.361Z,2.53
2018-12-08T13:43:52.057Z,2.40
2018-12-08T13:46:18.648Z,3.10
2018-12-08T13:48:45.413Z,2.83
2018-12-08T13:51:12.012Z,2.30
2018-12-08T13:53:38.585Z,2.73
2018-12-08T13:56:05.231Z,2.70
2018-12-08T13:58:31.804Z,2.40
2018-12-08T14:00:58.386Z,3.17
2018-12-08T14:03:24.980Z,2.90
2018-12-08T14:05:51.573Z,2.97
2018-12-08T14:08:18.169Z,3.00
2018-12-08T14:10:44.736Z,1.80
2018-12-08T14:13:11.370Z,2.33
2018-12-08T14:15:38.065Z,2.57
2018-12-08T14:18:04.709Z,2.80
2018-12-08T14:20:31.400Z,2.87
2018-12-08T14:22:58.029Z,2.80
2018-12-08T14:25:24.628Z,2.30
2018-12-08T14:27:51.257Z,2.30
2018-12-08T14:30:17.853Z,2.30
2018-12-08T14:32:44.469Z,2.60
2018-12-08T14:35:11.077Z,2.77
2018-12-08T14:37:37.680Z,2.53
2018-12-08T14:40:05.003Z,2.50
2018-12-08T14:42:31.613Z,3.23
2018-12-08T14:44:58.204Z,2.67
2018-12-08T14:47:24.807Z,2.90
2018-12-08T14:49:51.389Z,2.40
2018-12-08T14:52:17.965Z,3.13
2018-12-08T14:54:44.573Z,3.13
2018-12-08T14:57:11.155Z,2.70
2018-12-08T14:59:37.826Z,3.33
2018-12-08T15:02:04.424Z,2.53
2018-12-08T15:04:31.052Z,2.70
2018-12-08T15:06:57.630Z,3.20
2018-12-08T15:09:24.251Z,2.87
2018-12-08T15:11:50.857Z,2.97
2018-12-08T15:14:17.486Z,2.93
2018-12-08T15:16:44.522Z,2.93
2018-12-08T15:19:11.242Z,3.90
2018-12-08T15:21:37.927Z,3.47
2018-12-08T15:24:04.499Z,3.40
2018-12-08T15:26:31.138Z,3.77
2018-12-08T15:28:57.732Z,4.20
2018-12-08T15:31:24.315Z,3.87
2018-12-08T15:33:50.908Z,3.63
2018-12-08T15:36:17.533Z,4.03
2018-12-08T15:38:44.153Z,3.00
2018-12-08T15:41:10.754Z,3.60
2018-12-08T15:43:37.353Z,3.83
2018-12-08T15:46:03.972Z,4.20
2018-12-08T15:48:30.558Z,3.50
2018-12-08T15:50:57.156Z,3.53
2018-12-08T15:53:23.748Z,3.87
2018-12-08T15:55:50.376Z,4.27
2018-12-08T15:58:17.060Z,4.70
2018-12-08T16:00:43.727Z,3.70
2018-12-08T16:03:10.356Z,4.73
2018-12-08T16:05:37.008Z,4.87
2018-12-08T16:08:05.404Z,8.87
2018-12-08T16:10:32.224Z,19.67
2018-12-08T16:12:58.829Z,14.93
2018-12-08T16:15:26.963Z,9.60
2018-12-08T16:17:53.617Z,5.63
2018-12-08T16:20:20.224Z,6.90
2018-12-08T16:22:46.789Z,5.17
2018-12-08T16:25:13.400Z,3.60
2018-12-08T16:27:39.997Z,4.27
2018-12-08T16:30:06.997Z,3.93
2018-12-08T16:32:33.590Z,3.77
2018-12-08T16:35:00.185Z,3.80
2018-12-08T16:37:26.796Z,3.87
2018-12-08T16:39:53.360Z,2.90
2018-12-08T16:42:19.985Z,5.50
2018-12-08T16:44:46.581Z,3.30
2018-12-08T16:47:13.148Z,3.37
2018-12-08T16:49:39.756Z,3.83
2018-12-08T16:52:06.329Z,2.93
2018-12-08T16:54:32.897Z,3.43
2018-12-08T16:56:59.530Z,3.20
2018-12-08T16:59:26.173Z,2.10
2018-12-08T17:01:53.104Z,2.63
2018-12-08T17:04:20.321Z,2.63
2018-12-08T17:06:46.920Z,2.50
2018-12-08T17:09:13.538Z,3.20
2018-12-08T17:11:40.219Z,2.50
2018-12-08T17:14:06.911Z,2.80
2018-12-08T17:16:33.476Z,2.17
2018-12-08T17:19:00.101Z,2.40
2018-12-08T17:21:26.701Z,2.10
2018-12-08T17:23:53.288Z,1.97
2018-12-08T17:26:19.882Z,2.57
2018-12-08T17:28:46.489Z,2.13
2018-12-08T17:31:13.080Z,1.83
2018-12-08T17:33:39.673Z,1.60
2018-12-08T17:36:06.237Z,1.23
2018-12-08T17:38:32.857Z,1.70
2018-12-08T17:40:59.472Z,1.80
2018-12-08T17:43:26.088Z,2.00
2018-12-08T17:45:52.682Z,1.40
2018-12-08T17:48:19.246Z,1.20
2018-12-08T17:50:45.828Z,1.40
2018-12-08T17:53:12.404Z,1.23
2018-12-08T17:55:38.993Z,1.40
2018-12-08T17:58:05.558Z,1.30
2018-12-08T18:00:32.218Z,1.60
2018-12-08T18:02:58.779Z,1.03
2018-12-08T18:05:25.356Z,1.10
2018-12-08T18:07:52.029Z,1.30
2018-12-08T18:10:18.612Z,1.33
2018-12-08T18:12:45.213Z,1.27
2018-12-08T18:15:11.797Z,0.80
2018-12-08T18:17:38.391Z,1.23
2018-12-08T18:20:06.260Z,1.00
2018-12-08T18:22:33.065Z,0.83
2018-12-08T18:24:59.832Z,1.10
2018-12-08T18:27:26.401Z,1.50
2018-12-08T18:29:52.989Z,1.00
2018-12-08T18:32:19.579Z,1.10
2018-12-08T18:34:46.180Z,0.90
2018-12-08T18:37:12.748Z,1.23
2018-12-08T18:39:39.312Z,1.33
2018-12-08T18:42:05.916Z,1.20
2018-12-08T18:44:32.562Z,1.17
2018-12-08T18:46:59.260Z,1.20
2018-12-08T18:49:25.837Z,1.20
2018-12-08T18:51:53.613Z,1.20
2018-12-08T18:54:20.177Z,0.90
2018-12-08T18:56:46.739Z,1.10
2018-12-08T18:59:13.362Z,1.20
2018-12-08T19:01:39.970Z,1.10
2018-12-08T19:04:06.649Z,2.03
2018-12-08T19:06:33.296Z,1.10
2018-12-08T19:08:59.913Z,1.10
2018-12-08T19:11:26.505Z,1.30
2018-12-08T19:13:53.126Z,1.30
2018-12-08T19:16:19.817Z,0.90
2018-12-08T19:18:46.404Z,0.77
2018-12-08T19:21:12.996Z,0.70
2018-12-08T19:23:43.666Z,0.70
2018-12-08T19:26:08.159Z,1.40
2018-12-08T19:28:35.640Z,1.10
2018-12-08T19:31:02.237Z,1.47
2018-12-08T19:33:28.877Z,1.03
2018-12-08T19:35:55.453Z,1.10
2018-12-08T19:38:22.040Z,1.00
2018-12-08T19:40:48.629Z,0.77
2018-12-08T19:43:15.213Z,0.90
2018-12-08T19:45:41.796Z,0.60
2018-12-08T19:48:08.417Z,0.93
2018-12-08T19:50:34.986Z,0.90
2018-12-08T19:53:01.577Z,1.10
2018-12-08T19:55:28.157Z,1.00
2018-12-08T19:57:54.976Z,1.10
2018-12-08T20:00:21.581Z,0.87
2018-12-08T20:02:48.149Z,0.70
2018-12-08T20:05:14.764Z,0.60
2018-12-08T20:07:41.356Z,1.00
2018-12-08T20:10:08.179Z,0.70
2018-12-08T20:12:34.725Z,0.80
2018-12-08T20:15:01.341Z,0.67
2018-12-08T20:17:27.942Z,0.90
2018-12-08T20:19:54.536Z,1.00
2018-12-08T20:22:21.137Z,1.10
2018-12-08T20:24:47.729Z,0.80
2018-12-08T20:27:14.329Z,1.00
2018-12-08T20:29:40.941Z,0.77
2018-12-08T20:32:07.524Z,0.87
2018-12-08T20:34:34.088Z,0.70
2018-12-08T20:37:00.685Z,0.40
2018-12-08T20:39:27.251Z,0.67
2018-12-08T20:41:53.853Z,0.50
2018-12-08T20:44:20.424Z,0.30
2018-12-08T20:46:47.017Z,0.80
2018-12-08T20:49:13.600Z,0.50
2018-12-08T20:51:40.161Z,0.70
2018-12-08T20:54:06.773Z,0.80
2018-12-08T20:56:33.353Z,0.67
2018-12-08T20:58:59.921Z,0.50
2018-12-08T21:01:26.520Z,0.50
2018-12-08T21:03:53.084Z,0.40
2018-12-08T21:06:19.681Z,0.70
2018-12-08T21:08:46.286Z,0.60
2018-12-08T21:11:12.874Z,0.50
2018-12-08T21:13:40.307Z,0.30
2018-12-08T21:16:06.964Z,0.53
2018-12-08T21:18:33.532Z,0.50
2018-12-08T21:21:00.117Z,0.60
2018-12-08T21:23:27.218Z,0.80
2018-12-08T21:25:53.905Z,0.80
2018-12-08T21:28:20.485Z,0.90
2018-12-08T21:30:47.086Z,0.47
2018-12-08T21:33:13.667Z,0.60
2018-12-08T21:35:40.249Z,1.10
2018-12-08T21:38:06.817Z,0.83
2018-12-08T21:40:33.393Z,1.00
2018-12-08T21:43:00.008Z,0.77
2018-12-08T21:45:26.645Z,1.13
2018-12-08T21:47:53.232Z,0.70
2018-12-08T21:50:19.825Z,0.70
2018-12-08T21:52:46.412Z,0.70
2018-12-08T21:55:13.024Z,0.70
2018-12-08T21:57:39.636Z,0.87
2018-12-08T22:00:07.133Z,0.90
2018-12-08T22:02:33.740Z,0.80
2018-12-08T22:05:00.328Z,0.53
2018-12-08T22:07:26.921Z,1.30
2018-12-08T22:09:53.476Z,1.30
2018-12-08T22:12:20.057Z,0.90
2018-12-08T22:14:52.282Z,1.17
2018-12-08T22:17:18.888Z,1.00
2018-12-08T22:19:45.756Z,0.80
2018-12-08T22:22:12.410Z,0.90
2018-12-08T22:24:38.997Z,0.70
2018-12-08T22:27:05.583Z,0.80
2018-12-08T22:29:32.144Z,0.83
2018-12-08T22:31:58.725Z,0.90
2018-12-08T22:34:25.313Z,0.97
2018-12-08T22:36:51.897Z,1.47
2018-12-08T22:39:18.465Z,1.43
2018-12-08T22:41:45.046Z,1.53
2018-12-08T22:44:11.853Z,1.73
2018-12-08T22:46:38.421Z,1.43
2018-12-08T22:51:38.165Z,2.10
2018-12-08T22:54:04.732Z,1.77
2018-12-08T22:56:31.330Z,1.97
2018-12-08T22:58:57.894Z,1.80
2018-12-08T23:01:24.505Z,2.13
2018-12-08T23:03:51.092Z,2.20
2018-12-08T23:06:17.680Z,2.57
2018-12-08T23:08:44.302Z,1.73
2018-12-08T23:11:10.929Z,1.57
2018-12-08T23:13:37.637Z,1.60
2018-12-08T23:16:04.202Z,1.80
2018-12-08T23:18:30.789Z,2.07
2018-12-08T23:20:57.348Z,1.77
2018-12-08T23:23:23.940Z,2.17
2018-12-08T23:25:50.520Z,2.13
2018-12-08T23:28:17.196Z,2.07
2018-12-08T23:30:43.771Z,2.30
2018-12-08T23:33:10.340Z,2.20
2018-12-08T23:35:36.912Z,2.00
2018-12-08T23:38:03.613Z,2.90
2018-12-08T23:40:30.277Z,2.23
2018-12-08T23:42:56.880Z,3.10
2018-12-08T23:45:23.448Z,2.90
2018-12-08T23:47:50.020Z,1.87
2018-12-08T23:50:16.605Z,2.93
2018-12-08T23:52:43.186Z,2.70
2018-12-08T23:55:09.756Z,3.27
2018-12-08T23:57:36.337Z,3.10
